Terminal Aerodrome Forecast
Issued by NWS Sioux Falls, SD

Home | Current Version | Previous Version | Text Only | Print | Product List | Glossary On
Versions: 1 2 3 4 5 6 7 8 9 10 11 12 13 14 15 16 17 18
000
FTUS43 KFSD 261141 CCA
TAFSUX
TAF COR
KSUX 261141Z 2612/2712 32008KT 4SM -RA OVC008
     FM261500 32011KT P6SM OVC015
     FM261800 31009KT P6SM BKN025
     FM262100 33009KT P6SM SCT035
     FM270400 VRB03KT P6SM SKC=

USA.gov is the U.S. government's official web portal to all federal, state and local government web resources and services.